RYR537F LIME-LIRN
Flight info
| Callsign | RYR537F |
|---|---|
| Flight time | N/A |
| Altitude | 35000 |
| Route | LOGDI DCT OLNUK DCT LOMED DCT EVULI DCT ERIKA |
| Aircraft | B738/M-SDE3FGIJ1LRWY/SB1 |
Departure
| Time | 2026-05-07 00:52 |
|---|---|
| Airport | Il Caravaggio International Airport (LIME) |
Arrival
| Time | N/A |
|---|---|
| Airport | Naples International Airport (LIRN) |
| Time | Latitude | Longitude | Altitude | Speed | Heading |
|---|---|---|---|---|---|
| 2026-05-07 00:03 | 45.66613 | 9.70285 | 786 ft | 0 kts | 195° |
| 2026-05-07 00:38 | 45.66617 | 9.70286 | 786 ft | 3 kts | 195° |
| 2026-05-07 00:38 | 45.66643 | 9.70296 | 786 ft | 4 kts | 195° |
| 2026-05-07 00:39 | 45.66666 | 9.70304 | 786 ft | 4 kts | 180° |
| 2026-05-07 00:39 | 45.66686 | 9.70293 | 786 ft | 4 kts | 117° |
| 2026-05-07 00:39 | 45.66693 | 9.70266 | 786 ft | 1 kts | 105° |
| 2026-05-07 00:39 | 45.66694 | 9.70261 | 786 ft | 0 kts | 105° |
| 2026-05-07 00:44 | 45.66694 | 9.70262 | 786 ft | 0 kts | 105° |
| 2026-05-07 00:44 | 45.66692 | 9.70273 | 786 ft | 2 kts | 105° |
| 2026-05-07 00:45 | 45.66686 | 9.70308 | 786 ft | 5 kts | 105° |
| 2026-05-07 00:45 | 45.66674 | 9.70371 | 786 ft | 8 kts | 105° |
| 2026-05-07 00:45 | 45.66656 | 9.70464 | 786 ft | 11 kts | 105° |
| 2026-05-07 00:45 | 45.66634 | 9.70582 | 786 ft | 14 kts | 105° |
| 2026-05-07 00:46 | 45.66608 | 9.70720 | 786 ft | 14 kts | 105° |
| 2026-05-07 00:46 | 45.66584 | 9.70856 | 786 ft | 14 kts | 103° |
| 2026-05-07 00:46 | 45.66562 | 9.70987 | 786 ft | 13 kts | 107° |
| 2026-05-07 00:46 | 45.66535 | 9.71108 | 786 ft | 13 kts | 108° |
| 2026-05-07 00:47 | 45.66507 | 9.71227 | 786 ft | 12 kts | 109° |
| 2026-05-07 00:47 | 45.66479 | 9.71343 | 786 ft | 12 kts | 109° |
| 2026-05-07 00:47 | 45.66456 | 9.71457 | 786 ft | 12 kts | 105° |
| 2026-05-07 00:47 | 45.66439 | 9.71571 | 786 ft | 12 kts | 92° |
| 2026-05-07 00:48 | 45.66451 | 9.71682 | 786 ft | 11 kts | 76° |
| 2026-05-07 00:48 | 45.66469 | 9.71789 | 786 ft | 11 kts | 79° |
| 2026-05-07 00:48 | 45.66465 | 9.71895 | 786 ft | 11 kts | 102° |
| 2026-05-07 00:48 | 45.66447 | 9.71996 | 786 ft | 10 kts | 104° |
| 2026-05-07 00:49 | 45.66430 | 9.72093 | 786 ft | 10 kts | 104° |
| 2026-05-07 00:49 | 45.66413 | 9.72188 | 786 ft | 10 kts | 104° |
| 2026-05-07 00:49 | 45.66396 | 9.72280 | 786 ft | 9 kts | 104° |
| 2026-05-07 00:49 | 45.66380 | 9.72370 | 786 ft | 9 kts | 104° |
| 2026-05-07 00:50 | 45.66376 | 9.72460 | 786 ft | 9 kts | 83° |
| 2026-05-07 00:50 | 45.66385 | 9.72547 | 786 ft | 9 kts | 72° |
| 2026-05-07 00:50 | 45.66433 | 9.72563 | 786 ft | 5 kts | 320° |
| 2026-05-07 00:50 | 45.66443 | 9.72525 | 786 ft | 4 kts | 284° |
| 2026-05-07 00:51 | 45.66450 | 9.72487 | 786 ft | 5 kts | 283° |
| 2026-05-07 00:51 | 45.66499 | 9.72224 | 786 ft | 61 kts | 285° |
| 2026-05-07 00:51 | 45.66673 | 9.71303 | 786 ft | 128 kts | 285° |
| 2026-05-07 00:51 | 45.66944 | 9.69832 | 903 ft | 169 kts | 285° |
| 2026-05-07 00:52 | 45.67230 | 9.68240 | 1657 ft | 166 kts | 282° |
| 2026-05-07 00:52 | 45.67070 | 9.66534 | 1999 ft | 181 kts | 240° |
| 2026-05-07 00:52 | 45.66240 | 9.65223 | 2395 ft | 179 kts | 221° |
| 2026-05-07 00:52 | 45.65328 | 9.64016 | 2834 ft | 178 kts | 221° |
| 2026-05-07 00:53 | 45.64433 | 9.62795 | 3283 ft | 178 kts | 223° |
| 2026-05-07 00:53 | 45.63553 | 9.61559 | 3728 ft | 176 kts | 223° |
| 2026-05-07 00:53 | 45.62672 | 9.60302 | 4349 ft | 183 kts | 224° |
| 2026-05-07 00:53 | 45.61765 | 9.59002 | 5166 ft | 188 kts | 224° |
| 2026-05-07 00:54 | 45.60775 | 9.57607 | 5405 ft | 212 kts | 224° |
| 2026-05-07 00:54 | 45.59696 | 9.56080 | 5737 ft | 226 kts | 224° |
| 2026-05-07 00:54 | 45.58564 | 9.54470 | 6360 ft | 231 kts | 224° |
| 2026-05-07 00:54 | 45.57432 | 9.52858 | 7178 ft | 228 kts | 223° |
| 2026-05-07 00:55 | 45.56083 | 9.51693 | 7946 ft | 231 kts | 195° |
| 2026-05-07 00:55 | 45.54466 | 9.51651 | 8654 ft | 238 kts | 171° |
| 2026-05-07 00:55 | 45.52872 | 9.52404 | 9366 ft | 244 kts | 160° |
| 2026-05-07 00:55 | 45.51301 | 9.53363 | 10087 ft | 247 kts | 159° |
| 2026-05-07 00:56 | 45.49714 | 9.54360 | 10757 ft | 250 kts | 159° |
| 2026-05-07 00:56 | 45.48110 | 9.55362 | 11449 ft | 253 kts | 160° |
| 2026-05-07 00:56 | 45.46486 | 9.56364 | 12153 ft | 256 kts | 160° |
| 2026-05-07 00:56 | 45.44843 | 9.57445 | 12719 ft | 268 kts | 155° |
| 2026-05-07 00:57 | 45.43168 | 9.58817 | 12895 ft | 293 kts | 153° |
| 2026-05-07 00:57 | 45.41358 | 9.60394 | 13089 ft | 317 kts | 152° |
| 2026-05-07 00:57 | 45.39413 | 9.62102 | 13277 ft | 339 kts | 152° |
| 2026-05-07 00:57 | 45.37368 | 9.63893 | 13805 ft | 349 kts | 152° |
| 2026-05-07 00:58 | 45.35279 | 9.65713 | 14466 ft | 353 kts | 152° |
| 2026-05-07 00:58 | 45.33174 | 9.67533 | 15215 ft | 355 kts | 152° |
| 2026-05-07 00:58 | 45.31048 | 9.69360 | 15956 ft | 358 kts | 152° |
| 2026-05-07 00:58 | 45.28901 | 9.71197 | 16700 ft | 360 kts | 153° |
| 2026-05-07 00:59 | 45.24587 | 9.74871 | 18228 ft | 364 kts | 153° |
| 2026-05-07 00:59 | 45.22400 | 9.76726 | 18832 ft | 367 kts | 154° |
| 2026-05-07 00:59 | 45.20201 | 9.78590 | 19484 ft | 369 kts | 154° |
| 2026-05-07 01:00 | 45.18013 | 9.80442 | 20129 ft | 371 kts | 154° |
| 2026-05-07 01:00 | 45.15783 | 9.82329 | 20765 ft | 374 kts | 155° |
| 2026-05-07 01:00 | 45.13543 | 9.84222 | 21380 ft | 375 kts | 155° |
| 2026-05-07 01:00 | 45.11288 | 9.86127 | 22028 ft | 377 kts | 156° |
| 2026-05-07 01:01 | 45.09021 | 9.88038 | 22625 ft | 380 kts | 156° |
| 2026-05-07 01:01 | 45.06770 | 9.89935 | 23202 ft | 383 kts | 156° |
| 2026-05-07 01:01 | 45.04470 | 9.91871 | 23731 ft | 385 kts | 156° |
| 2026-05-07 01:01 | 45.02154 | 9.93820 | 24205 ft | 388 kts | 157° |
| 2026-05-07 01:02 | 44.99829 | 9.95774 | 24659 ft | 391 kts | 157° |
| 2026-05-07 01:02 | 44.97479 | 9.97747 | 25065 ft | 394 kts | 157° |
| 2026-05-07 01:02 | 44.95117 | 9.99729 | 25533 ft | 395 kts | 157° |
| 2026-05-07 01:02 | 44.92742 | 10.01720 | 25970 ft | 398 kts | 157° |
| 2026-05-07 01:03 | 44.90348 | 10.03724 | 26358 ft | 402 kts | 157° |
| 2026-05-07 01:03 | 44.87933 | 10.05745 | 26763 ft | 405 kts | 157° |
| 2026-05-07 01:03 | 44.85503 | 10.07776 | 27184 ft | 407 kts | 157° |
| 2026-05-07 01:03 | 44.83058 | 10.09818 | 27582 ft | 410 kts | 157° |
| 2026-05-07 01:04 | 44.80597 | 10.11872 | 27968 ft | 413 kts | 157° |
| 2026-05-07 01:04 | 44.78144 | 10.13917 | 28340 ft | 415 kts | 157° |
| 2026-05-07 01:04 | 44.75650 | 10.15995 | 28724 ft | 418 kts | 157° |
| 2026-05-07 01:04 | 44.73957 | 10.17403 | 28974 ft | 420 kts | 157° |
| 2026-05-07 01:05 | 44.71467 | 10.19484 | 29338 ft | 423 kts | 156° |
| 2026-05-07 01:05 | 44.69030 | 10.21859 | 29786 ft | 429 kts | 152° |
| 2026-05-07 01:05 | 44.66659 | 10.24413 | 30265 ft | 428 kts | 150° |
| 2026-05-07 01:05 | 44.64322 | 10.26989 | 30720 ft | 425 kts | 150° |
| 2026-05-07 01:06 | 44.62008 | 10.29540 | 31246 ft | 421 kts | 151° |
| 2026-05-07 01:06 | 44.59702 | 10.32058 | 31700 ft | 419 kts | 151° |
| 2026-05-07 01:06 | 44.57392 | 10.34554 | 32083 ft | 418 kts | 151° |
| 2026-05-07 01:06 | 44.55084 | 10.37032 | 32468 ft | 417 kts | 151° |
| 2026-05-07 01:07 | 44.52776 | 10.39500 | 32888 ft | 416 kts | 151° |
| 2026-05-07 01:07 | 44.50482 | 10.41951 | 33319 ft | 414 kts | 151° |
| 2026-05-07 01:07 | 44.48198 | 10.44387 | 33760 ft | 412 kts | 151° |
| 2026-05-07 01:07 | 44.45925 | 10.46811 | 34144 ft | 410 kts | 151° |
| 2026-05-07 01:08 | 44.43651 | 10.49232 | 34399 ft | 411 kts | 151° |
| 2026-05-07 01:08 | 44.41362 | 10.51665 | 34598 ft | 414 kts | 151° |
| 2026-05-07 01:08 | 44.39064 | 10.54107 | 34849 ft | 415 kts | 151° |
| 2026-05-07 01:08 | 44.36806 | 10.56666 | 34959 ft | 423 kts | 147° |
| 2026-05-07 01:09 | 44.34634 | 10.59399 | 34950 ft | 426 kts | 146° |
| 2026-05-07 01:09 | 44.30334 | 10.65049 | 34969 ft | 419 kts | 145° |
| 2026-05-07 01:10 | 44.26094 | 10.70576 | 34986 ft | 417 kts | 146° |
| 2026-05-07 01:10 | 44.21832 | 10.76041 | 34985 ft | 416 kts | 146° |
| 2026-05-07 01:11 | 44.17556 | 10.81492 | 35006 ft | 416 kts | 146° |
| 2026-05-07 01:11 | 44.13288 | 10.86922 | 34985 ft | 418 kts | 146° |
| 2026-05-07 01:12 | 44.08990 | 10.92385 | 34953 ft | 418 kts | 146° |
| 2026-05-07 01:12 | 44.04687 | 10.97844 | 34985 ft | 419 kts | 146° |
| 2026-05-07 01:13 | 44.00413 | 11.03303 | 34996 ft | 421 kts | 145° |
| 2026-05-07 01:13 | 43.96145 | 11.08914 | 35006 ft | 423 kts | 144° |
| 2026-05-07 01:14 | 43.91860 | 11.14561 | 34995 ft | 424 kts | 144° |
| 2026-05-07 01:14 | 43.87592 | 11.20160 | 34998 ft | 425 kts | 145° |
| 2026-05-07 01:15 | 43.83282 | 11.25791 | 34990 ft | 425 kts | 144° |
| 2026-05-07 01:15 | 43.78971 | 11.31409 | 34976 ft | 426 kts | 144° |
| 2026-05-07 01:16 | 43.74646 | 11.37032 | 34989 ft | 427 kts | 144° |
| 2026-05-07 01:16 | 43.70311 | 11.42656 | 35001 ft | 427 kts | 144° |
| 2026-05-07 01:17 | 43.65993 | 11.48246 | 35003 ft | 428 kts | 144° |
| 2026-05-07 01:17 | 43.61642 | 11.53868 | 34990 ft | 429 kts | 144° |
| 2026-05-07 01:18 | 43.57280 | 11.59511 | 35000 ft | 429 kts | 144° |
| 2026-05-07 01:18 | 43.52933 | 11.65182 | 34998 ft | 430 kts | 144° |
| 2026-05-07 01:19 | 43.48579 | 11.70863 | 34988 ft | 430 kts | 143° |
| 2026-05-07 01:19 | 43.44224 | 11.76528 | 35002 ft | 431 kts | 143° |
| 2026-05-07 01:20 | 43.39891 | 11.82150 | 34987 ft | 431 kts | 143° |
| 2026-05-07 01:20 | 43.35520 | 11.87807 | 35011 ft | 432 kts | 144° |
| 2026-05-07 01:21 | 43.31129 | 11.93478 | 34998 ft | 433 kts | 144° |
| 2026-05-07 01:21 | 43.26735 | 11.99141 | 35009 ft | 434 kts | 144° |
| 2026-05-07 01:22 | 43.22308 | 12.04833 | 34972 ft | 436 kts | 144° |
| 2026-05-07 01:22 | 43.17874 | 12.10527 | 34975 ft | 436 kts | 143° |
| 2026-05-07 01:23 | 43.13479 | 12.16160 | 35000 ft | 436 kts | 143° |
| 2026-05-07 01:23 | 43.09026 | 12.21850 | 35000 ft | 438 kts | 143° |
| 2026-05-07 01:24 | 43.04557 | 12.27550 | 34998 ft | 439 kts | 143° |
| 2026-05-07 01:24 | 43.00112 | 12.33209 | 35001 ft | 439 kts | 144° |
| 2026-05-07 01:25 | 42.95645 | 12.38886 | 34965 ft | 437 kts | 144° |
| 2026-05-07 01:25 | 42.91208 | 12.44515 | 34988 ft | 432 kts | 143° |
| 2026-05-07 01:26 | 42.86824 | 12.50062 | 35004 ft | 428 kts | 143° |
| 2026-05-07 01:26 | 42.82458 | 12.55574 | 34999 ft | 427 kts | 143° |
| 2026-05-07 01:27 | 42.78124 | 12.61032 | 35001 ft | 426 kts | 144° |
| 2026-05-07 01:27 | 42.73770 | 12.66505 | 35010 ft | 426 kts | 144° |
| 2026-05-07 01:28 | 42.69406 | 12.71979 | 35004 ft | 426 kts | 143° |
| 2026-05-07 01:28 | 42.65035 | 12.77455 | 35001 ft | 425 kts | 143° |
| 2026-05-07 01:28 | 42.62874 | 12.80162 | 34864 ft | 420 kts | 143° |
| 2026-05-07 01:29 | 42.60769 | 12.82797 | 34607 ft | 412 kts | 143° |
| 2026-05-07 01:29 | 42.58665 | 12.85428 | 34246 ft | 409 kts | 143° |
| 2026-05-07 01:29 | 42.56585 | 12.88022 | 33896 ft | 405 kts | 144° |
| 2026-05-07 01:29 | 42.54514 | 12.90601 | 33486 ft | 403 kts | 144° |
| 2026-05-07 01:30 | 42.52456 | 12.93162 | 33104 ft | 399 kts | 144° |
| 2026-05-07 01:30 | 42.50418 | 12.95696 | 32763 ft | 395 kts | 144° |
| 2026-05-07 01:30 | 42.48398 | 12.98205 | 32376 ft | 392 kts | 144° |
| 2026-05-07 01:30 | 42.46395 | 13.00691 | 32061 ft | 389 kts | 144° |
| 2026-05-07 01:31 | 42.44407 | 13.03156 | 31697 ft | 386 kts | 144° |
| 2026-05-07 01:31 | 42.42427 | 13.05607 | 31345 ft | 384 kts | 144° |
| 2026-05-07 01:31 | 42.40462 | 13.08038 | 31012 ft | 381 kts | 144° |
| 2026-05-07 01:31 | 42.38504 | 13.10459 | 30657 ft | 379 kts | 144° |
| 2026-05-07 01:32 | 42.36590 | 13.12824 | 30326 ft | 376 kts | 144° |
| 2026-05-07 01:32 | 42.34660 | 13.15206 | 29966 ft | 374 kts | 144° |
| 2026-05-07 01:32 | 42.32738 | 13.17577 | 29582 ft | 372 kts | 144° |
| 2026-05-07 01:32 | 42.30828 | 13.19931 | 29216 ft | 369 kts | 144° |
| 2026-05-07 01:33 | 42.28940 | 13.22258 | 28862 ft | 366 kts | 144° |
| 2026-05-07 01:33 | 42.27064 | 13.24566 | 28514 ft | 363 kts | 144° |
| 2026-05-07 01:33 | 42.25199 | 13.26859 | 28164 ft | 361 kts | 144° |
| 2026-05-07 01:33 | 42.23370 | 13.29106 | 27799 ft | 359 kts | 144° |
| 2026-05-07 01:34 | 42.21533 | 13.31361 | 27496 ft | 355 kts | 144° |
| 2026-05-07 01:34 | 42.19705 | 13.33601 | 27130 ft | 353 kts | 144° |
| 2026-05-07 01:34 | 42.17892 | 13.35822 | 26792 ft | 351 kts | 144° |
| 2026-05-07 01:34 | 42.16090 | 13.38027 | 26458 ft | 349 kts | 144° |
| 2026-05-07 01:35 | 42.14297 | 13.40221 | 26116 ft | 346 kts | 144° |
| 2026-05-07 01:35 | 42.12513 | 13.42401 | 25803 ft | 344 kts | 144° |
| 2026-05-07 01:35 | 42.10740 | 13.44566 | 25462 ft | 344 kts | 144° |
| 2026-05-07 01:35 | 42.08969 | 13.46726 | 25142 ft | 343 kts | 144° |
| 2026-05-07 01:36 | 42.07218 | 13.48860 | 24805 ft | 342 kts | 144° |
| 2026-05-07 01:36 | 42.05456 | 13.51007 | 24466 ft | 341 kts | 144° |
| 2026-05-07 01:36 | 42.03697 | 13.53148 | 24140 ft | 340 kts | 144° |
| 2026-05-07 01:36 | 42.01940 | 13.55286 | 23813 ft | 339 kts | 144° |
| 2026-05-07 01:37 | 42.00187 | 13.57416 | 23447 ft | 339 kts | 143° |
| 2026-05-07 01:37 | 41.98438 | 13.59540 | 23087 ft | 338 kts | 143° |
| 2026-05-07 01:37 | 41.96694 | 13.61658 | 22738 ft | 336 kts | 143° |
| 2026-05-07 01:37 | 41.94963 | 13.63759 | 22406 ft | 335 kts | 143° |
| 2026-05-07 01:38 | 41.93257 | 13.65826 | 22071 ft | 333 kts | 143° |
| 2026-05-07 01:38 | 41.91542 | 13.67904 | 21747 ft | 331 kts | 143° |
| 2026-05-07 01:38 | 41.89846 | 13.69957 | 21422 ft | 330 kts | 143° |
| 2026-05-07 01:38 | 41.88131 | 13.72030 | 21117 ft | 328 kts | 143° |
| 2026-05-07 01:39 | 41.86437 | 13.74078 | 20778 ft | 327 kts | 143° |
| 2026-05-07 01:39 | 41.84749 | 13.76116 | 20475 ft | 325 kts | 143° |
| 2026-05-07 01:39 | 41.83075 | 13.78136 | 20157 ft | 323 kts | 143° |
| 2026-05-07 01:39 | 41.81406 | 13.80148 | 19846 ft | 321 kts | 143° |
| 2026-05-07 01:40 | 41.79742 | 13.82152 | 19540 ft | 321 kts | 143° |
| 2026-05-07 01:40 | 41.78082 | 13.84151 | 19219 ft | 320 kts | 143° |
| 2026-05-07 01:40 | 41.76425 | 13.86143 | 18897 ft | 319 kts | 143° |
| 2026-05-07 01:40 | 41.74773 | 13.88130 | 18592 ft | 319 kts | 143° |
| 2026-05-07 01:41 | 41.73133 | 13.90100 | 18256 ft | 321 kts | 143° |
| 2026-05-07 01:41 | 41.71470 | 13.92097 | 17919 ft | 321 kts | 143° |
| 2026-05-07 01:41 | 41.69807 | 13.94093 | 17556 ft | 320 kts | 143° |
| 2026-05-07 01:41 | 41.68153 | 13.96078 | 17228 ft | 318 kts | 143° |
| 2026-05-07 01:42 | 41.66507 | 13.98050 | 16915 ft | 315 kts | 143° |
| 2026-05-07 01:42 | 41.64900 | 13.99975 | 16602 ft | 312 kts | 143° |
| 2026-05-07 01:42 | 41.63281 | 14.01872 | 16283 ft | 304 kts | 149° |
| 2026-05-07 01:42 | 41.61422 | 14.03018 | 15923 ft | 291 kts | 173° |
| 2026-05-07 01:43 | 41.59417 | 14.03273 | 15516 ft | 288 kts | 184° |
| 2026-05-07 01:43 | 41.57408 | 14.03320 | 15179 ft | 288 kts | 185° |
| 2026-05-07 01:43 | 41.55403 | 14.03343 | 14879 ft | 288 kts | 185° |
| 2026-05-07 01:43 | 41.53406 | 14.03366 | 14566 ft | 287 kts | 185° |
| 2026-05-07 01:44 | 41.51438 | 14.03392 | 14283 ft | 285 kts | 185° |
| 2026-05-07 01:44 | 41.49456 | 14.03424 | 13991 ft | 284 kts | 185° |
| 2026-05-07 01:44 | 41.47487 | 14.03462 | 13691 ft | 281 kts | 186° |
| 2026-05-07 01:44 | 41.45529 | 14.03498 | 13370 ft | 280 kts | 185° |
| 2026-05-07 01:45 | 41.43588 | 14.03534 | 13057 ft | 278 kts | 185° |
| 2026-05-07 01:45 | 41.41661 | 14.03572 | 12771 ft | 275 kts | 185° |
| 2026-05-07 01:45 | 41.39756 | 14.03614 | 12486 ft | 272 kts | 185° |
| 2026-05-07 01:45 | 41.37867 | 14.03656 | 12220 ft | 271 kts | 185° |
| 2026-05-07 01:46 | 41.36004 | 14.03695 | 11935 ft | 271 kts | 185° |
| 2026-05-07 01:46 | 41.34118 | 14.03736 | 11639 ft | 270 kts | 185° |